createdAt,value
2022-12-15T00:02:25.802Z,98767.44
2022-12-15T00:05:12.035Z,98766.41
2022-12-15T00:07:58.112Z,98770.66
2022-12-15T00:10:44.505Z,98780.38
2022-12-15T00:13:31.831Z,98785.53
2022-12-15T00:16:18.547Z,98791.50
2022-12-15T00:19:04.728Z,98798.56
2022-12-15T00:21:50.760Z,98798.25
2022-12-15T00:24:36.725Z,98797.72
2022-12-15T00:27:22.699Z,98801.88
2022-12-15T00:30:08.661Z,98796.59
2022-12-15T00:32:55.082Z,98788.44
2022-12-15T00:35:41.132Z,98798.28
2022-12-15T00:38:28.763Z,98796.72
2022-12-15T00:40:59.531Z,98801.28
2022-12-15T00:43:32.657Z,98818.88
2022-12-15T00:46:19.213Z,98810.09
2022-12-15T00:48:47.494Z,98815.38
2022-12-15T00:51:15.512Z,98799.81
2022-12-15T00:54:01.522Z,98793.03
2022-12-15T00:56:47.861Z,98797.37
2022-12-15T00:59:34.319Z,98784.03
2022-12-15T01:02:21.299Z,98790.22
2022-12-15T01:05:07.298Z,98783.97
2022-12-15T01:07:53.446Z,98782.97
2022-12-15T01:10:39.478Z,98783.00
2022-12-15T01:13:25.625Z,98796.34
2022-12-15T01:16:11.619Z,98807.03
2022-12-15T01:18:57.923Z,98807.75
2022-12-15T01:21:26.500Z,98804.66
2022-12-15T01:23:54.177Z,98807.59
2022-12-15T01:26:21.525Z,98802.41
2022-12-15T01:28:48.897Z,98808.44
2022-12-15T01:31:16.567Z,98803.91
2022-12-15T01:33:44.008Z,98800.72
2022-12-15T01:36:12.061Z,98802.41
2022-12-15T01:38:39.700Z,98797.34
2022-12-15T01:41:10.541Z,98802.59
2022-12-15T01:43:39.826Z,98806.94
2022-12-15T01:46:16.562Z,98804.16
2022-12-15T01:49:17.526Z,98799.22
2022-12-15T01:51:49.041Z,98795.78
2022-12-15T01:54:22.127Z,98796.81
2022-12-15T01:56:52.613Z,98800.22
2022-12-15T01:59:33.178Z,98794.41
2022-12-15T02:02:01.231Z,98814.34
2022-12-15T02:04:29.204Z,98812.91
2022-12-15T02:06:56.557Z,98808.62
2022-12-15T02:09:24.727Z,98806.28
2022-12-15T02:11:59.793Z,98794.75
2022-12-15T02:14:53.905Z,98805.00
2022-12-15T02:17:50.045Z,98807.97
2022-12-15T02:20:37.500Z,98824.53
2022-12-15T02:23:29.678Z,98817.00
2022-12-15T02:26:05.921Z,98826.87
2022-12-15T02:29:01.094Z,98826.53
2022-12-15T02:31:50.772Z,98819.66
2022-12-15T02:34:18.527Z,98811.78
2022-12-15T02:36:49.936Z,98815.59
2022-12-15T02:39:18.431Z,98815.66
2022-12-15T02:41:47.755Z,98807.31
2022-12-15T02:44:19.673Z,98809.88
2022-12-15T02:47:13.868Z,98813.03
2022-12-15T02:49:59.523Z,98815.00
2022-12-15T02:53:04.675Z,98818.25
2022-12-15T02:55:50.656Z,98826.56
2022-12-15T02:58:28.561Z,98815.88
2022-12-15T03:01:09.139Z,98811.94
2022-12-15T03:03:38.739Z,98811.63
2022-12-15T03:06:06.582Z,98814.03
2022-12-15T03:08:33.933Z,98816.16
2022-12-15T03:11:01.666Z,98823.53
2022-12-15T03:13:29.396Z,98820.06
2022-12-15T03:15:58.528Z,98823.69
2022-12-15T03:18:26.176Z,98823.25
2022-12-15T03:20:53.720Z,98821.59
2022-12-15T03:23:23.019Z,98830.62
2022-12-15T03:25:50.643Z,98819.25
2022-12-15T03:28:18.085Z,98825.97
2022-12-15T03:30:45.489Z,98827.50
2022-12-15T03:33:18.447Z,98841.53
2022-12-15T03:35:45.821Z,98829.75
2022-12-15T03:38:13.321Z,98831.44
2022-12-15T03:40:40.978Z,98835.37
2022-12-15T03:43:08.296Z,98826.28
2022-12-15T03:45:35.909Z,98824.12
2022-12-15T03:48:03.683Z,98828.81
2022-12-15T03:50:31.067Z,98829.31
2022-12-15T03:53:03.174Z,98831.81
2022-12-15T03:55:31.234Z,98842.87
2022-12-15T03:57:59.266Z,98840.53
2022-12-15T04:00:27.238Z,98842.53
2022-12-15T04:02:55.021Z,98838.44
2022-12-15T04:05:31.640Z,98848.06
2022-12-15T04:08:00.382Z,98839.81
2022-12-15T04:10:34.051Z,98849.44
2022-12-15T04:13:08.302Z,98853.53
2022-12-15T04:15:37.340Z,98859.69
2022-12-15T04:18:06.916Z,98864.87
2022-12-15T04:20:34.276Z,98865.59
2022-12-15T04:23:01.714Z,98871.59
2022-12-15T04:25:48.001Z,98876.91
2022-12-15T04:28:33.688Z,98874.34
2022-12-15T04:31:28.382Z,98865.91
2022-12-15T04:34:24.485Z,98877.75
2022-12-15T04:37:12.372Z,98887.75
2022-12-15T04:39:59.979Z,98892.38
2022-12-15T04:42:47.709Z,98896.84
2022-12-15T04:45:33.827Z,98906.06
2022-12-15T04:48:20.033Z,98913.38
2022-12-15T04:51:05.896Z,98928.75
2022-12-15T04:53:51.961Z,98924.31
2022-12-15T04:56:37.856Z,98935.50
2022-12-15T04:59:24.185Z,98930.50
2022-12-15T05:02:10.769Z,98926.19
2022-12-15T05:04:57.012Z,98937.69
2022-12-15T05:07:43.983Z,98946.88
2022-12-15T05:10:30.356Z,98941.00
2022-12-15T05:13:24.420Z,98945.50
2022-12-15T05:16:10.754Z,98954.63
2022-12-15T05:18:56.447Z,98954.38
2022-12-15T05:21:42.593Z,98961.09
2022-12-15T05:24:28.697Z,98954.28
2022-12-15T05:27:14.716Z,98945.22
2022-12-15T05:30:00.601Z,98967.53
2022-12-15T05:32:28.229Z,98974.22
2022-12-15T05:34:55.683Z,98971.91
2022-12-15T05:37:23.013Z,98969.94
2022-12-15T05:39:50.636Z,98971.56
2022-12-15T05:42:18.027Z,98973.72
2022-12-15T05:44:45.418Z,98977.91
2022-12-15T05:47:13.111Z,98983.41
2022-12-15T05:49:40.577Z,98990.88
2022-12-15T05:52:08.234Z,98998.09
2022-12-15T05:54:35.886Z,99006.69
2022-12-15T05:57:03.260Z,99016.16
2022-12-15T05:59:30.645Z,99017.63
2022-12-15T06:01:58.286Z,99028.09
2022-12-15T06:04:26.004Z,99020.44
2022-12-15T06:06:53.414Z,99030.12
2022-12-15T06:09:20.833Z,99037.75
2022-12-15T06:11:48.481Z,99053.53
2022-12-15T06:14:15.872Z,99059.12
2022-12-15T06:16:50.350Z,99055.63
2022-12-15T06:19:20.137Z,99059.50
2022-12-15T06:21:47.822Z,99059.06
2022-12-15T06:24:15.319Z,99045.44
2022-12-15T06:26:43.003Z,99052.38
2022-12-15T06:29:12.003Z,99069.63
2022-12-15T06:31:40.283Z,99062.81
2022-12-15T06:34:10.575Z,99060.97
2022-12-15T06:36:39.053Z,99055.63
2022-12-15T06:39:09.020Z,99056.47
2022-12-15T06:41:36.965Z,99061.19
2022-12-15T06:44:07.725Z,99071.06
2022-12-15T06:46:35.328Z,99071.28
2022-12-15T06:49:03.326Z,99071.97
2022-12-15T06:51:30.816Z,99074.75
2022-12-15T06:53:59.091Z,99081.56
2022-12-15T06:56:34.151Z,99093.47
2022-12-15T06:59:06.793Z,99108.69
2022-12-15T07:01:34.879Z,99112.78
2022-12-15T07:04:04.806Z,99107.03
2022-12-15T07:06:36.589Z,99118.72
2022-12-15T07:09:07.893Z,99134.78
2022-12-15T07:11:35.865Z,99141.94
2022-12-15T07:14:03.777Z,99147.75
2022-12-15T07:16:31.484Z,99152.28
2022-12-15T07:18:58.999Z,99130.47
2022-12-15T07:21:26.459Z,99135.41
2022-12-15T07:23:56.380Z,99148.13
2022-12-15T07:26:25.197Z,99140.25
2022-12-15T07:28:53.822Z,99134.72
2022-12-15T07:31:22.549Z,99140.37
2022-12-15T07:33:52.243Z,99141.16
2022-12-15T07:36:20.464Z,99149.41
2022-12-15T07:38:50.323Z,99162.50
2022-12-15T07:41:19.808Z,99160.28
2022-12-15T07:43:47.896Z,99164.34
2022-12-15T07:46:16.596Z,99179.41
2022-12-15T07:48:44.019Z,99158.03
2022-12-15T07:51:20.250Z,99146.69
2022-12-15T07:53:49.968Z,99157.63
2022-12-15T07:56:19.231Z,99173.69
2022-12-15T07:58:46.603Z,99172.59
2022-12-15T08:01:14.499Z,99178.22
2022-12-15T08:03:42.393Z,99181.94
2022-12-15T08:06:12.367Z,99179.03
2022-12-15T08:08:40.202Z,99180.41
2022-12-15T08:11:09.864Z,99179.44
2022-12-15T08:16:25.990Z,99188.97
2022-12-15T08:18:53.872Z,99199.16
2022-12-15T08:21:21.280Z,99203.63
2022-12-15T08:23:49.515Z,99208.84
2022-12-15T08:26:18.342Z,99212.72
2022-12-15T08:28:46.152Z,99210.31
2022-12-15T08:31:17.214Z,99205.66
2022-12-15T08:33:45.958Z,99203.41
2022-12-15T08:36:16.295Z,99202.50
2022-12-15T08:38:45.538Z,99209.91
2022-12-15T08:41:15.072Z,99219.78
2022-12-15T08:43:48.228Z,99211.53
2022-12-15T08:46:27.941Z,99216.47
2022-12-15T08:48:56.119Z,99230.22
2022-12-15T08:51:24.732Z,99229.31
2022-12-15T08:53:52.563Z,99236.28
2022-12-15T08:56:24.118Z,99242.25
2022-12-15T08:58:58.323Z,99236.56
2022-12-15T09:01:27.722Z,99239.63
2022-12-15T09:03:56.605Z,99244.91
2022-12-15T09:06:27.337Z,99244.63
2022-12-15T09:08:59.792Z,99241.09
2022-12-15T09:11:29.081Z,99239.13
2022-12-15T09:13:59.864Z,99233.81
2022-12-15T09:16:27.951Z,99236.84
2022-12-15T09:18:57.521Z,99239.44
2022-12-15T09:21:26.862Z,99229.34
2022-12-15T09:23:57.772Z,99226.88
2022-12-15T09:26:25.401Z,99223.25
2022-12-15T09:28:54.907Z,99221.44
2022-12-15T09:31:25.055Z,99221.97
2022-12-15T09:33:55.232Z,99214.97
2022-12-15T09:36:22.945Z,99217.56
2022-12-15T09:38:50.345Z,99215.47
2022-12-15T09:41:24.181Z,99219.34
2022-12-15T09:43:56.639Z,99230.28
2022-12-15T09:47:01.529Z,99239.00
2022-12-15T09:49:47.545Z,99239.63
2022-12-15T09:52:18.878Z,99241.50
2022-12-15T09:54:46.632Z,99244.97
2022-12-15T09:57:26.959Z,99239.87
2022-12-15T10:00:21.647Z,99247.13
2022-12-15T10:03:08.339Z,99257.28
2022-12-15T10:06:22.294Z,99248.22
2022-12-15T10:09:08.433Z,99248.38
2022-12-15T10:11:38.719Z,99248.09
2022-12-15T10:14:16.260Z,99245.44
2022-12-15T10:16:46.547Z,99251.91
2022-12-15T10:19:41.689Z,99257.75
2022-12-15T10:22:30.148Z,99254.22
2022-12-15T10:25:09.555Z,99239.37
2022-12-15T10:28:14.692Z,99239.34
2022-12-15T10:31:11.522Z,99239.06
2022-12-15T10:33:47.069Z,99231.13
2022-12-15T10:36:16.601Z,99220.94
2022-12-15T10:38:47.503Z,99222.59
2022-12-15T10:41:22.802Z,99223.37
2022-12-15T10:43:51.407Z,99228.31
2022-12-15T10:46:19.017Z,99240.13
2022-12-15T10:48:57.130Z,99231.78
2022-12-15T10:51:31.530Z,99237.94
2022-12-15T10:54:01.931Z,99232.44
2022-12-15T10:56:33.636Z,99229.44
2022-12-15T10:59:06.374Z,99234.91
2022-12-15T11:01:34.933Z,99224.59
2022-12-15T11:04:02.579Z,99229.34
2022-12-15T11:06:33.074Z,99231.06
2022-12-15T11:09:27.280Z,99238.28
2022-12-15T11:12:13.320Z,99233.97
2022-12-15T11:14:46.424Z,99249.75
2022-12-15T11:17:20.582Z,99243.12
2022-12-15T11:19:49.104Z,99239.34
2022-12-15T11:22:26.318Z,99242.16
2022-12-15T11:24:59.875Z,99246.16
2022-12-15T11:27:33.003Z,99233.91
2022-12-15T11:30:09.785Z,99232.28
2022-12-15T11:32:38.896Z,99235.94
2022-12-15T11:35:12.307Z,99236.81
2022-12-15T11:37:43.308Z,99235.88
2022-12-15T11:40:20.399Z,99232.47
2022-12-15T11:43:12.914Z,99237.44
2022-12-15T11:45:59.344Z,99237.09
2022-12-15T11:48:41.894Z,99255.16
2022-12-15T11:51:15.447Z,99254.41
2022-12-15T11:54:00.588Z,99263.34
2022-12-15T11:56:39.030Z,99259.38
2022-12-15T11:59:27.717Z,99259.59
2022-12-15T12:02:14.169Z,99260.81
2022-12-15T12:05:01.410Z,99260.06
2022-12-15T12:08:10.032Z,99267.59
2022-12-15T12:11:09.338Z,99254.03
2022-12-15T12:13:41.970Z,99253.31
2022-12-15T12:16:36.024Z,99242.47
2022-12-15T12:19:10.176Z,99241.53
2022-12-15T12:21:51.050Z,99246.37
2022-12-15T12:24:43.031Z,99243.25
2022-12-15T12:27:18.092Z,99257.59
2022-12-15T12:29:48.713Z,99230.94
2022-12-15T12:32:42.579Z,99232.59
2022-12-15T12:35:33.499Z,99236.22
2022-12-15T12:38:06.892Z,99242.56
2022-12-15T12:40:54.650Z,99235.75
2022-12-15T12:43:43.990Z,99229.84
2022-12-15T12:46:23.705Z,99224.59
2022-12-15T12:49:03.620Z,99234.84
2022-12-15T12:51:31.911Z,99238.19
2022-12-15T12:54:00.030Z,99232.38
2022-12-15T12:56:45.449Z,99237.19
2022-12-15T12:59:28.416Z,99243.44
2022-12-15T13:02:11.201Z,99244.53
2022-12-15T13:04:41.270Z,99246.56
2022-12-15T13:07:38.659Z,99250.88
2022-12-15T13:10:09.412Z,99255.13
2022-12-15T13:12:54.541Z,99252.59
2022-12-15T13:15:31.124Z,99267.41
2022-12-15T13:18:14.568Z,99261.22
2022-12-15T13:20:43.668Z,99255.22
2022-12-15T13:23:20.053Z,99267.72
2022-12-15T13:25:56.623Z,99260.06
2022-12-15T13:28:28.028Z,99261.06
2022-12-15T13:31:21.165Z,99256.81
2022-12-15T13:33:52.314Z,99260.19
2022-12-15T13:36:38.379Z,99270.25
2022-12-15T13:39:12.020Z,99268.78
2022-12-15T13:42:23.745Z,99279.66
2022-12-15T13:44:41.441Z,99272.62
2022-12-15T13:47:16.622Z,99271.56
2022-12-15T13:49:53.240Z,99260.97
2022-12-15T13:53:16.200Z,99269.37
2022-12-15T13:55:35.348Z,99266.47
2022-12-15T13:58:16.116Z,99268.75
2022-12-15T14:00:54.831Z,99268.78
2022-12-15T14:03:23.177Z,99262.91
2022-12-15T14:05:58.996Z,99266.72
2022-12-15T14:08:28.882Z,99264.31
2022-12-15T14:11:00.028Z,99262.53
2022-12-15T14:13:31.401Z,99259.13
2022-12-15T14:16:05.249Z,99262.34
2022-12-15T14:18:38.974Z,99265.81
2022-12-15T14:21:18.898Z,99253.37
2022-12-15T14:24:11.432Z,99256.56
2022-12-15T14:26:33.882Z,99251.84
2022-12-15T14:29:05.114Z,99244.09
2022-12-15T14:31:32.642Z,99248.41
2022-12-15T14:34:22.929Z,99247.28
2022-12-15T14:36:51.483Z,99250.91
2022-12-15T14:39:30.829Z,99254.13
2022-12-15T14:41:59.169Z,99261.72
2022-12-15T14:47:24.402Z,99273.88
2022-12-15T14:49:51.883Z,99270.59
2022-12-15T14:52:34.085Z,99267.25
2022-12-15T14:55:04.296Z,99267.28
2022-12-15T14:57:46.518Z,99279.47
2022-12-15T15:00:32.859Z,99299.53
2022-12-15T15:03:19.063Z,99283.66
2022-12-15T15:05:50.294Z,99273.34
2022-12-15T15:08:29.775Z,99292.53
2022-12-15T15:11:02.632Z,99285.84
2022-12-15T15:13:40.182Z,99288.66
2022-12-15T15:16:17.935Z,99292.63
2022-12-15T15:18:53.295Z,99292.63
2022-12-15T15:21:23.015Z,99286.00
2022-12-15T15:24:20.303Z,99262.41
2022-12-15T15:26:47.747Z,99257.41
2022-12-15T15:29:38.585Z,99263.88
2022-12-15T15:32:14.770Z,99270.75
2022-12-15T15:34:43.072Z,99270.28
2022-12-15T15:37:24.196Z,99259.38
2022-12-15T15:39:53.730Z,99254.47
2022-12-15T15:42:21.177Z,99264.22
2022-12-15T15:44:48.624Z,99261.94
2022-12-15T15:47:25.104Z,99258.19
2022-12-15T15:49:54.806Z,99246.44
2022-12-15T15:52:22.616Z,99256.53
2022-12-15T15:54:50.273Z,99253.87
2022-12-15T15:57:18.637Z,99244.31
2022-12-15T15:59:47.078Z,99251.78
2022-12-15T16:02:15.083Z,99249.38
2022-12-15T16:04:43.928Z,99243.09
2022-12-15T16:07:20.557Z,99251.41
2022-12-15T16:09:48.430Z,99251.41
2022-12-15T16:12:30.786Z,99252.41
2022-12-15T16:14:58.406Z,99247.31
2022-12-15T16:17:25.784Z,99254.87
2022-12-15T16:19:53.137Z,99254.34
2022-12-15T16:22:21.690Z,99249.97
2022-12-15T16:24:49.104Z,99242.03
2022-12-15T16:27:16.602Z,99237.53
2022-12-15T16:29:44.549Z,99238.44
2022-12-15T16:32:13.240Z,99250.66
2022-12-15T16:34:41.994Z,99251.84
2022-12-15T16:37:24.167Z,99254.13
2022-12-15T16:39:52.428Z,99261.50
2022-12-15T16:42:20.439Z,99262.00
2022-12-15T16:44:47.839Z,99259.50
2022-12-15T16:47:16.102Z,99253.50
2022-12-15T16:49:43.775Z,99258.88
2022-12-15T16:52:19.318Z,99257.78
2022-12-15T16:54:48.535Z,99269.63
2022-12-15T16:57:16.309Z,99285.13
2022-12-15T16:59:43.854Z,99286.63
2022-12-15T17:02:29.644Z,99279.50
2022-12-15T17:04:57.837Z,99279.38
2022-12-15T17:07:27.813Z,99291.53
2022-12-15T17:09:55.899Z,99293.72
2022-12-15T17:12:23.278Z,99289.56
2022-12-15T17:14:50.934Z,99277.72
2022-12-15T17:17:19.500Z,99278.44
2022-12-15T17:22:34.594Z,99283.16
2022-12-15T17:25:02.358Z,99287.00
2022-12-15T17:27:30.582Z,99285.91
2022-12-15T17:30:00.087Z,99279.19
2022-12-15T17:32:27.581Z,99292.56
2022-12-15T17:34:55.065Z,99290.72
2022-12-15T17:37:26.155Z,99286.66
2022-12-15T17:39:56.839Z,99291.22
2022-12-15T17:42:25.133Z,99292.56
2022-12-15T17:44:54.136Z,99301.91
2022-12-15T17:47:24.392Z,99290.75
2022-12-15T17:49:52.482Z,99296.78
2022-12-15T17:52:29.687Z,99284.66
2022-12-15T17:54:57.931Z,99283.00
2022-12-15T17:57:25.826Z,99285.78
2022-12-15T17:59:53.553Z,99281.69
2022-12-15T18:02:21.791Z,99277.91
2022-12-15T18:04:50.024Z,99276.37
2022-12-15T18:07:23.452Z,99282.09
2022-12-15T18:09:52.067Z,99281.62
2022-12-15T18:12:24.907Z,99274.06
2022-12-15T18:14:54.279Z,99275.03
2022-12-15T18:17:22.782Z,99272.66
2022-12-15T18:19:50.489Z,99274.75
2022-12-15T18:22:23.950Z,99272.69
2022-12-15T18:24:54.046Z,99272.66
2022-12-15T18:27:25.612Z,99285.03
2022-12-15T18:29:53.703Z,99291.63
2022-12-15T18:32:24.173Z,99285.41
2022-12-15T18:34:53.237Z,99280.72
2022-12-15T18:37:23.060Z,99278.03
2022-12-15T18:39:51.219Z,99282.34
2022-12-15T18:42:20.754Z,99276.56
2022-12-15T18:44:52.086Z,99270.53
2022-12-15T18:47:22.823Z,99260.53
2022-12-15T18:49:52.137Z,99260.53
2022-12-15T18:52:22.679Z,99247.97
2022-12-15T18:54:52.075Z,99254.78
2022-12-15T18:57:28.794Z,99248.59
2022-12-15T18:59:58.955Z,99247.53
2022-12-15T19:02:28.269Z,99244.47
2022-12-15T19:04:58.339Z,99246.94
2022-12-15T19:07:26.681Z,99251.47
2022-12-15T19:09:54.740Z,99260.69
2022-12-15T19:12:22.417Z,99258.88
2022-12-15T19:14:52.735Z,99268.94
2022-12-15T19:17:42.920Z,99267.09
2022-12-15T19:20:37.549Z,99271.97
2022-12-15T19:23:07.214Z,99275.13
2022-12-15T19:25:35.672Z,99259.25
2022-12-15T19:28:03.497Z,99267.28
2022-12-15T19:30:36.972Z,99251.34
2022-12-15T19:33:07.226Z,99246.09
2022-12-15T19:35:36.761Z,99250.84
2022-12-15T19:38:05.146Z,99254.72
2022-12-15T19:40:38.230Z,99255.97
2022-12-15T19:43:08.654Z,99256.81
2022-12-15T19:45:37.196Z,99268.91
2022-12-15T19:48:05.887Z,99262.09
2022-12-15T19:50:37.659Z,99240.94
2022-12-15T19:53:15.001Z,99229.41
2022-12-15T19:55:44.328Z,99204.56
2022-12-15T19:58:29.278Z,99203.91
2022-12-15T20:01:03.908Z,99178.41
2022-12-15T20:03:35.407Z,99175.97
2022-12-15T20:06:05.124Z,99185.19
2022-12-15T20:08:39.234Z,99178.63
2022-12-15T20:11:24.971Z,99184.38
2022-12-15T20:13:53.926Z,99172.47
2022-12-15T20:16:23.018Z,99171.81
2022-12-15T20:18:53.167Z,99182.94
2022-12-15T20:21:23.456Z,99199.34
2022-12-15T20:23:58.495Z,99190.53
2022-12-15T20:26:29.938Z,99195.88
2022-12-15T20:28:59.269Z,99178.41
2022-12-15T20:31:27.859Z,99177.34
2022-12-15T20:33:55.637Z,99171.19
2022-12-15T20:36:27.864Z,99176.69
2022-12-15T20:38:57.062Z,99170.63
2022-12-15T20:41:27.634Z,99148.97
2022-12-15T20:43:56.082Z,99151.38
2022-12-15T20:46:27.090Z,99155.75
2022-12-15T20:48:55.728Z,99154.56
2022-12-15T20:51:35.184Z,99147.75
2022-12-15T20:54:04.340Z,99142.44
2022-12-15T20:56:32.238Z,99159.69
2022-12-15T20:59:00.887Z,99169.56
2022-12-15T21:01:36.876Z,99169.56
2022-12-15T21:04:20.855Z,99165.59
2022-12-15T21:06:54.435Z,99167.50
2022-12-15T21:09:23.163Z,99165.03
2022-12-15T21:11:52.430Z,99156.91
2022-12-15T21:14:23.499Z,99160.19
2022-12-15T21:16:51.407Z,99151.47
2022-12-15T21:19:20.767Z,99155.31
2022-12-15T21:21:52.203Z,99145.69
2022-12-15T21:24:27.504Z,99130.59
2022-12-15T21:26:55.509Z,99140.72
2022-12-15T21:29:25.804Z,99140.03
2022-12-15T21:31:53.169Z,99130.88
2022-12-15T21:34:20.572Z,99125.91
2022-12-15T21:36:52.614Z,99119.97
2022-12-15T21:39:37.298Z,99120.06
2022-12-15T21:42:10.582Z,99112.19
2022-12-15T21:44:37.907Z,99114.00
2022-12-15T21:47:53.230Z,99122.88
2022-12-15T21:50:22.327Z,99103.88
2022-12-15T21:52:50.013Z,99112.97
2022-12-15T21:55:24.245Z,99107.38
2022-12-15T21:57:51.975Z,99101.97
2022-12-15T22:00:20.442Z,99094.09
2022-12-15T22:02:49.293Z,99100.44
2022-12-15T22:05:19.173Z,99097.06
2022-12-15T22:07:46.763Z,99098.53
2022-12-15T22:10:14.944Z,99099.00
2022-12-15T22:12:44.096Z,99103.59
2022-12-15T22:15:16.464Z,99092.09
2022-12-15T22:17:44.336Z,99073.31
2022-12-15T22:20:16.711Z,99081.41
2022-12-15T22:22:45.113Z,99075.41
2022-12-15T22:25:19.869Z,99077.41
2022-12-15T22:27:48.029Z,99069.03
2022-12-15T22:30:21.718Z,99064.94
2022-12-15T22:32:49.313Z,99059.06
2022-12-15T22:35:18.608Z,99055.59
2022-12-15T22:37:46.109Z,99056.13
2022-12-15T22:40:14.472Z,99052.91
2022-12-15T22:42:44.586Z,99056.03
2022-12-15T22:45:19.812Z,99052.34
2022-12-15T22:47:48.651Z,99054.34
2022-12-15T22:50:21.719Z,99042.91
2022-12-15T22:52:49.738Z,99039.97
2022-12-15T22:55:20.506Z,99043.69
2022-12-15T22:57:55.358Z,99043.38
2022-12-15T23:00:23.054Z,99047.03
2022-12-15T23:02:50.855Z,99042.78
2022-12-15T23:05:19.985Z,99042.84
2022-12-15T23:07:47.667Z,99039.84
2022-12-15T23:10:35.611Z,99026.56
2022-12-15T23:13:03.407Z,99023.22
2022-12-15T23:15:50.535Z,99023.09
2022-12-15T23:18:19.411Z,99025.53
2022-12-15T23:20:46.763Z,99019.56
2022-12-15T23:23:15.383Z,99018.94
2022-12-15T23:25:44.075Z,99011.84
2022-12-15T23:28:11.418Z,99010.66
2022-12-15T23:30:38.867Z,99016.91
2022-12-15T23:33:06.498Z,99007.63
2022-12-15T23:35:33.956Z,99002.53
2022-12-15T23:38:01.336Z,99000.41
2022-12-15T23:40:29.118Z,98997.03
2022-12-15T23:42:56.493Z,98993.53
2022-12-15T23:45:23.868Z,98995.94
2022-12-15T23:47:51.481Z,98987.63
2022-12-15T23:50:19.156Z,98994.16
2022-12-15T23:52:50.288Z,98997.59
2022-12-15T23:55:19.659Z,98991.25
2022-12-15T23:57:47.039Z,98982.91
